createdAt,value
2019-01-25T00:00:38.856Z,-1.76
2019-01-25T00:03:10.850Z,-1.77
2019-01-25T00:05:42.852Z,-1.75
2019-01-25T00:08:14.849Z,-1.70
2019-01-25T00:10:46.886Z,-1.61
2019-01-25T00:13:18.861Z,-1.59
2019-01-25T00:15:50.884Z,-1.57
2019-01-25T00:18:22.895Z,-1.59
2019-01-25T00:20:55.927Z,-1.56
2019-01-25T00:23:28.079Z,-1.57
2019-01-25T00:26:00.081Z,-1.59
2019-01-25T00:28:32.083Z,-1.59
2019-01-25T00:31:04.061Z,-1.61
2019-01-25T00:33:36.026Z,-1.64
2019-01-25T00:36:07.990Z,-1.57
2019-01-25T00:38:39.970Z,-1.56
2019-01-25T00:41:11.969Z,-1.57
2019-01-25T00:43:43.949Z,-1.58
2019-01-25T00:46:16.031Z,-1.57
2019-01-25T00:48:47.992Z,-1.56
2019-01-25T00:51:20.086Z,-1.63
2019-01-25T00:53:52.064Z,-1.66
2019-01-25T00:56:24.054Z,-1.68
2019-01-25T00:58:56.015Z,-1.75
2019-01-25T01:01:28.018Z,-1.72
2019-01-25T01:03:59.998Z,-1.69
2019-01-25T01:06:32.004Z,-1.71
2019-01-25T01:09:07.518Z,-1.75
2019-01-25T01:11:39.506Z,-1.71
2019-01-25T01:14:11.490Z,-1.69
2019-01-25T01:16:43.463Z,-1.72
2019-01-25T01:19:15.412Z,-1.68
2019-01-25T01:21:47.387Z,-1.74
2019-01-25T01:24:19.341Z,-1.76
2019-01-25T01:26:51.323Z,-1.77
2019-01-25T01:29:23.311Z,-1.75
2019-01-25T01:31:55.342Z,-1.68
2019-01-25T01:34:27.317Z,-1.67
2019-01-25T01:36:59.309Z,-1.67
2019-01-25T01:39:31.287Z,-1.67
2019-01-25T01:42:03.473Z,-1.69
2019-01-25T01:44:35.447Z,-1.74
2019-01-25T01:47:07.532Z,-1.70
2019-01-25T01:49:39.509Z,-1.75
2019-01-25T01:52:11.488Z,-1.75
2019-01-25T01:54:43.487Z,-1.72
2019-01-25T01:57:15.448Z,-1.73
2019-01-25T01:59:47.460Z,-1.70
2019-01-25T02:02:19.464Z,-1.75
2019-01-25T02:04:51.423Z,-1.72
2019-01-25T02:07:23.390Z,-1.70
2019-01-25T02:09:55.430Z,-1.75
2019-01-25T02:12:27.401Z,-1.75
2019-01-25T02:14:59.376Z,-1.77
2019-01-25T02:17:31.373Z,-1.70
2019-01-25T02:20:05.568Z,-1.75
2019-01-25T02:22:37.533Z,-1.71
2019-01-25T02:25:09.549Z,-1.72
2019-01-25T02:27:41.759Z,-1.73
2019-01-25T02:30:16.379Z,-1.73
2019-01-25T02:32:48.339Z,-1.69
2019-01-25T02:35:20.317Z,-1.79
2019-01-25T02:37:52.427Z,-1.76
2019-01-25T02:40:24.980Z,-1.75
2019-01-25T02:42:56.941Z,-1.77
2019-01-25T02:45:28.963Z,-1.77
2019-01-25T02:48:00.929Z,-1.74
2019-01-25T02:50:35.671Z,-1.69
2019-01-25T02:53:07.643Z,-1.68
2019-01-25T02:55:39.649Z,-1.72
2019-01-25T02:58:11.620Z,-1.78
2019-01-25T03:00:43.601Z,-1.75
2019-01-25T03:03:15.670Z,-1.74
2019-01-25T03:05:49.377Z,-1.64
2019-01-25T03:08:21.343Z,-1.64
2019-01-25T03:10:53.340Z,-1.70
2019-01-25T03:13:25.307Z,-1.66
2019-01-25T03:15:57.304Z,-1.72
2019-01-25T03:18:29.265Z,-1.71
2019-01-25T03:21:01.266Z,-1.76
2019-01-25T03:23:33.218Z,-1.79
2019-01-25T03:26:05.206Z,-1.80
2019-01-25T03:28:37.161Z,-1.80
2019-01-25T03:31:09.187Z,-1.76
2019-01-25T03:33:41.187Z,-1.78
2019-01-25T03:36:13.177Z,-1.70
2019-01-25T03:38:45.126Z,-1.73
2019-01-25T03:41:17.097Z,-1.81
2019-01-25T03:43:49.059Z,-1.77
2019-01-25T03:46:21.020Z,-1.76
2019-01-25T03:48:52.997Z,-1.81
2019-01-25T03:51:24.960Z,-1.74
2019-01-25T03:53:56.948Z,-1.73
2019-01-25T03:56:28.908Z,-1.74
2019-01-25T03:59:00.882Z,-1.70
2019-01-25T04:01:32.844Z,-1.74
2019-01-25T04:04:04.933Z,-1.78
2019-01-25T04:06:36.884Z,-1.76
2019-01-25T04:09:09.099Z,-1.82
2019-01-25T04:11:41.087Z,-1.92
2019-01-25T04:14:13.057Z,-1.87
2019-01-25T04:16:45.006Z,-1.89
2019-01-25T04:19:16.996Z,-1.81
2019-01-25T04:21:48.940Z,-1.84
2019-01-25T04:24:20.920Z,-1.87
2019-01-25T04:26:52.900Z,-1.85
2019-01-25T04:29:24.905Z,-1.84
2019-01-25T04:31:56.848Z,-1.81
2019-01-25T04:34:28.831Z,-1.83
2019-01-25T04:37:00.780Z,-1.76
2019-01-25T04:39:32.795Z,-1.79
2019-01-25T04:42:04.760Z,-1.79
2019-01-25T04:44:36.737Z,-1.81
2019-01-25T04:47:08.704Z,-1.77
2019-01-25T04:49:40.673Z,-1.74
2019-01-25T04:52:53.878Z,-1.77
2019-01-25T04:55:45.370Z,-1.78
2019-01-25T04:58:17.969Z,-1.79
2019-01-25T05:00:49.959Z,-1.83
2019-01-25T05:03:21.932Z,-1.85
2019-01-25T05:05:53.917Z,-1.81
2019-01-25T05:08:25.901Z,-1.83
2019-01-25T05:10:57.918Z,-1.88
2019-01-25T05:13:29.878Z,-1.89
2019-01-25T05:16:01.906Z,-1.89
2019-01-25T05:18:33.851Z,-1.93
2019-01-25T05:21:05.827Z,-1.93
2019-01-25T05:23:37.796Z,-1.94
2019-01-25T05:26:09.784Z,-1.89
2019-01-25T05:28:41.747Z,-1.93
2019-01-25T05:31:14.729Z,-1.93
2019-01-25T05:33:56.377Z,-1.96
2019-01-25T05:36:28.380Z,-2.01
2019-01-25T05:39:00.402Z,-2.02
2019-01-25T05:41:32.411Z,-2.05
2019-01-25T05:44:04.352Z,-2.12
2019-01-25T05:46:36.356Z,-2.21
2019-01-25T05:49:33.243Z,-2.22
2019-01-25T05:52:46.086Z,-2.39
2019-01-25T05:55:19.252Z,-2.45
2019-01-25T05:58:32.099Z,-2.55
2019-01-25T06:01:04.099Z,-2.66
2019-01-25T06:03:36.072Z,-2.75
2019-01-25T06:06:08.018Z,-2.85
2019-01-25T06:08:44.109Z,-2.96
2019-01-25T06:11:13.935Z,-3.03
2019-01-25T06:13:45.968Z,-3.11
2019-01-25T06:16:17.961Z,-3.23
2019-01-25T06:18:49.924Z,-3.30
2019-01-25T06:21:21.871Z,-3.35
2019-01-25T06:24:34.734Z,-3.41
2019-01-25T06:27:06.712Z,-3.38
2019-01-25T06:29:38.697Z,-3.46
2019-01-25T06:32:10.688Z,-3.46
2019-01-25T06:34:42.667Z,-3.58
2019-01-25T06:37:14.638Z,-3.60
2019-01-25T06:39:46.669Z,-3.62
2019-01-25T06:42:18.657Z,-3.57
2019-01-25T06:44:50.637Z,-3.58
2019-01-25T06:47:22.685Z,-3.58
2019-01-25T06:49:54.660Z,-3.63
2019-01-25T06:52:26.632Z,-3.67
2019-01-25T06:54:58.616Z,-3.64
2019-01-25T07:03:22.355Z,-3.57
2019-01-25T07:05:54.373Z,-3.60
2019-01-25T07:08:26.387Z,-3.57
2019-01-25T07:10:58.480Z,-3.56
2019-01-25T07:13:30.502Z,-3.53
2019-01-25T07:16:02.663Z,-3.48
2019-01-25T07:18:34.697Z,-3.56
2019-01-25T07:21:06.749Z,-3.60
2019-01-25T07:23:38.733Z,-3.56
2019-01-25T07:26:10.747Z,-3.46
2019-01-25T07:28:42.727Z,-3.45
2019-01-25T07:31:14.778Z,-3.37
2019-01-25T07:33:46.767Z,-3.30
2019-01-25T07:36:18.789Z,-3.35
2019-01-25T07:38:50.816Z,-3.31
2019-01-25T07:41:22.835Z,-3.25
2019-01-25T07:43:54.844Z,-3.11
2019-01-25T07:46:26.923Z,-3.01
2019-01-25T07:48:59.032Z,-3.03
2019-01-25T07:51:31.071Z,-2.94
2019-01-25T07:54:03.101Z,-2.91
2019-01-25T07:56:35.186Z,-2.85
2019-01-25T07:59:07.191Z,-2.82
2019-01-25T08:01:39.199Z,-2.77
2019-01-25T08:04:11.284Z,-2.83
2019-01-25T08:06:43.324Z,-2.77
2019-01-25T08:09:15.369Z,-2.72
2019-01-25T08:11:47.506Z,-2.57
2019-01-25T08:14:19.485Z,-2.53
2019-01-25T08:16:51.525Z,-2.47
2019-01-25T08:19:23.505Z,-2.44
2019-01-25T08:21:55.533Z,-2.35
2019-01-25T08:24:27.513Z,-2.34
2019-01-25T08:26:59.562Z,-2.29
2019-01-25T08:29:31.622Z,-2.21
2019-01-25T08:32:44.470Z,-2.20
2019-01-25T08:38:30.296Z,-2.22
2019-01-25T08:41:02.469Z,-2.31
2019-01-25T08:43:34.593Z,-2.27
2019-01-25T08:46:06.618Z,-2.19
2019-01-25T08:48:38.645Z,-2.13
2019-01-25T08:51:10.957Z,-2.15
2019-01-25T08:53:43.355Z,-2.07
2019-01-25T08:56:15.336Z,-1.92
2019-01-25T08:58:47.340Z,-1.78
2019-01-25T09:01:19.305Z,-1.65
2019-01-25T09:03:51.324Z,-1.55
2019-01-25T09:06:23.306Z,-1.49
2019-01-25T09:08:55.333Z,-1.37
2019-01-25T09:11:27.337Z,-1.37
2019-01-25T09:13:59.356Z,-1.37
2019-01-25T09:16:31.371Z,-1.43
2019-01-25T09:19:03.516Z,-1.55
2019-01-25T09:21:35.519Z,-1.45
2019-01-25T09:24:07.546Z,-1.37
2019-01-25T09:26:39.560Z,-1.31
2019-01-25T09:29:11.532Z,-1.23
2019-01-25T09:31:43.555Z,-1.08
2019-01-25T09:34:15.539Z,-1.12
2019-01-25T09:36:47.549Z,-1.05
2019-01-25T09:39:19.605Z,-1.03
2019-01-25T09:41:51.625Z,-0.97
2019-01-25T09:44:23.627Z,-0.92
2019-01-25T09:46:55.636Z,-0.93
2019-01-25T09:49:27.634Z,-0.84
2019-01-25T09:51:59.690Z,-0.72
2019-01-25T09:54:31.691Z,-0.66
2019-01-25T09:57:04.154Z,-0.65
2019-01-25T09:59:36.136Z,-0.56
2019-01-25T10:02:08.157Z,-0.57
2019-01-25T10:04:40.165Z,-0.56
2019-01-25T10:07:12.184Z,-0.37
2019-01-25T10:09:44.188Z,-0.43
2019-01-25T10:12:16.217Z,-0.46
2019-01-25T10:14:48.240Z,-0.40
2019-01-25T10:17:20.233Z,-0.09
2019-01-25T10:19:52.236Z,0.09
2019-01-25T10:22:24.253Z,0.20
2019-01-25T10:24:56.248Z,0.20
2019-01-25T10:27:28.275Z,0.31
2019-01-25T10:30:00.292Z,0.43
2019-01-25T10:32:32.444Z,0.48
2019-01-25T10:35:05.593Z,0.42
2019-01-25T10:37:37.642Z,0.47
2019-01-25T10:40:12.191Z,0.47
2019-01-25T10:42:52.682Z,0.39
2019-01-25T10:45:21.143Z,0.37
2019-01-25T10:47:53.188Z,0.35
2019-01-25T10:50:25.167Z,0.32
2019-01-25T10:52:57.213Z,0.32
2019-01-25T10:55:29.256Z,0.36
2019-01-25T10:58:01.290Z,0.31
2019-01-25T11:00:33.335Z,0.32
2019-01-25T11:03:05.420Z,0.36
2019-01-25T11:05:37.415Z,0.42
2019-01-25T11:08:09.512Z,0.44
2019-01-25T11:10:41.591Z,0.38
2019-01-25T11:13:13.625Z,0.33
2019-01-25T11:15:45.641Z,0.38
2019-01-25T11:18:17.644Z,0.53
2019-01-25T11:20:49.681Z,0.52
2019-01-25T11:23:21.672Z,0.45
2019-01-25T11:25:55.284Z,0.50
2019-01-25T11:28:27.516Z,0.56
2019-01-25T11:30:59.544Z,0.66
2019-01-25T11:33:31.533Z,0.63
2019-01-25T11:36:03.670Z,0.62
2019-01-25T11:38:35.665Z,0.77
2019-01-25T11:41:07.716Z,0.87
2019-01-25T11:43:39.719Z,0.86
2019-01-25T11:46:12.237Z,0.61
2019-01-25T11:48:44.246Z,0.67
2019-01-25T11:51:16.255Z,0.73
2019-01-25T11:53:48.298Z,0.66
2019-01-25T11:56:20.347Z,0.75
2019-01-25T11:58:52.392Z,0.75
2019-01-25T12:01:24.544Z,0.84
2019-01-25T12:03:56.527Z,0.76
2019-01-25T12:06:28.567Z,0.80
2019-01-25T12:09:00.570Z,0.81
2019-01-25T12:11:32.627Z,0.82
2019-01-25T12:14:04.730Z,0.77
2019-01-25T12:16:36.768Z,0.91
2019-01-25T12:19:08.774Z,0.98
2019-01-25T12:21:40.791Z,1.00
2019-01-25T12:24:12.770Z,1.00
2019-01-25T12:26:45.062Z,0.97
2019-01-25T12:29:17.176Z,0.97
2019-01-25T12:31:49.185Z,1.01
2019-01-25T12:34:21.187Z,0.90
2019-01-25T12:36:53.229Z,0.79
2019-01-25T12:39:25.229Z,0.90
2019-01-25T12:41:57.272Z,0.89
2019-01-25T12:44:29.317Z,0.98
2019-01-25T12:47:01.330Z,1.02
2019-01-25T12:49:33.334Z,1.05
2019-01-25T12:52:08.572Z,1.07
2019-01-25T12:54:40.635Z,1.10
2019-01-25T12:57:12.694Z,1.11
2019-01-25T12:59:44.707Z,1.13
2019-01-25T13:02:16.738Z,1.11
2019-01-25T13:04:48.772Z,1.16
2019-01-25T13:07:20.853Z,1.12
2019-01-25T13:09:52.903Z,1.06
2019-01-25T13:12:25.322Z,1.09
2019-01-25T13:14:59.284Z,1.14
2019-01-25T13:17:31.353Z,1.06
2019-01-25T13:20:05.719Z,0.86
2019-01-25T13:22:37.757Z,0.87
2019-01-25T13:25:09.776Z,0.80
2019-01-25T13:27:44.693Z,0.71
2019-01-25T13:30:19.541Z,0.74
2019-01-25T13:32:52.831Z,0.84
2019-01-25T13:35:24.881Z,0.81
2019-01-25T13:37:58.252Z,0.86
2019-01-25T13:40:30.258Z,0.88
2019-01-25T13:43:02.345Z,0.88
2019-01-25T13:45:34.365Z,0.89
2019-01-25T13:48:06.443Z,0.81
2019-01-25T13:50:38.446Z,0.76
2019-01-25T13:53:10.496Z,0.78
2019-01-25T13:55:42.804Z,0.81
2019-01-25T13:58:14.894Z,0.89
2019-01-25T14:00:46.996Z,0.94
2019-01-25T14:03:19.111Z,0.95
2019-01-25T14:05:51.169Z,0.97
2019-01-25T14:08:23.178Z,1.01
2019-01-25T14:10:55.337Z,1.01
2019-01-25T14:13:27.360Z,0.97
2019-01-25T14:15:59.385Z,0.99
2019-01-25T14:18:31.419Z,1.01
2019-01-25T14:21:03.577Z,0.99
2019-01-25T14:23:35.580Z,1.02
2019-01-25T14:26:07.636Z,1.12
2019-01-25T14:28:39.652Z,1.11
2019-01-25T14:31:11.679Z,1.09
2019-01-25T14:33:43.755Z,1.10
2019-01-25T14:36:15.820Z,1.06
2019-01-25T14:38:48.170Z,0.89
2019-01-25T14:41:20.248Z,0.93
2019-01-25T14:43:54.655Z,0.95
2019-01-25T14:46:26.233Z,0.99
2019-01-25T14:48:58.270Z,1.01
2019-01-25T14:51:30.421Z,1.04
2019-01-25T14:54:02.450Z,1.08
2019-01-25T14:56:34.481Z,1.09
2019-01-25T14:59:06.504Z,1.08
2019-01-25T15:01:38.545Z,1.09
2019-01-25T15:04:10.564Z,1.04
2019-01-25T15:06:42.643Z,1.04
2019-01-25T15:09:14.695Z,1.11
2019-01-25T15:11:46.839Z,1.10
2019-01-25T15:14:18.872Z,1.09
2019-01-25T15:16:50.909Z,1.12
2019-01-25T15:19:22.954Z,1.09
2019-01-25T15:21:54.970Z,1.05
2019-01-25T15:24:26.982Z,1.06
2019-01-25T15:26:59.055Z,1.07
2019-01-25T15:29:31.086Z,1.04
2019-01-25T15:32:03.211Z,1.06
2019-01-25T15:34:35.357Z,1.00
2019-01-25T15:37:07.371Z,0.96
2019-01-25T15:39:39.566Z,0.93
2019-01-25T15:42:11.629Z,0.95
2019-01-25T15:44:43.704Z,0.88
2019-01-25T15:47:15.805Z,0.86
2019-01-25T15:49:47.821Z,0.86
2019-01-25T15:52:19.827Z,0.90
2019-01-25T15:54:51.927Z,0.87
2019-01-25T15:57:24.084Z,0.86
2019-01-25T15:59:56.117Z,0.83
2019-01-25T16:02:28.098Z,0.88
2019-01-25T16:05:00.195Z,0.88
2019-01-25T16:07:32.248Z,0.86
2019-01-25T16:13:04.959Z,0.82
2019-01-25T16:15:37.021Z,0.75
2019-01-25T16:18:09.058Z,0.76
2019-01-25T16:20:41.147Z,0.73
2019-01-25T16:23:13.249Z,0.68
2019-01-25T16:25:45.316Z,0.65
2019-01-25T16:28:17.346Z,0.65
2019-01-25T16:30:49.421Z,0.66
2019-01-25T16:33:21.449Z,0.67
2019-01-25T16:35:53.461Z,0.69
2019-01-25T16:38:25.453Z,0.69
2019-01-25T16:40:57.526Z,0.71
2019-01-25T16:43:29.560Z,0.70
2019-01-25T16:46:01.651Z,0.71
2019-01-25T16:48:33.697Z,0.69
2019-01-25T16:51:05.782Z,0.67
2019-01-25T16:53:37.860Z,0.66
2019-01-25T16:56:09.928Z,0.58
2019-01-25T16:58:42.090Z,0.58
2019-01-25T17:01:14.159Z,0.59
2019-01-25T17:03:46.178Z,0.59
2019-01-25T17:06:18.212Z,0.63
2019-01-25T17:08:50.216Z,0.58
2019-01-25T17:11:34.841Z,0.55
2019-01-25T17:14:06.876Z,0.50
2019-01-25T17:16:38.982Z,0.52
2019-01-25T17:19:11.044Z,0.53
2019-01-25T17:21:43.230Z,0.52
2019-01-25T17:24:15.288Z,0.53
2019-01-25T17:26:47.394Z,0.55
2019-01-25T17:29:19.358Z,0.56
2019-01-25T17:31:51.396Z,0.51
2019-01-25T17:34:23.505Z,0.58
2019-01-25T17:36:55.607Z,0.60
2019-01-25T17:39:27.686Z,0.60
2019-01-25T17:41:59.978Z,0.63
2019-01-25T17:44:32.026Z,0.60
2019-01-25T17:47:04.218Z,0.62
2019-01-25T17:49:36.316Z,0.59
2019-01-25T17:52:08.419Z,0.61
2019-01-25T17:54:40.479Z,0.64
2019-01-25T17:59:50.925Z,0.67
2019-01-25T18:02:23.021Z,0.73
2019-01-25T18:04:55.054Z,0.79
2019-01-25T18:07:27.127Z,0.73
2019-01-25T18:09:59.222Z,0.69
2019-01-25T18:12:31.330Z,0.67
2019-01-25T18:15:44.212Z,0.75
2019-01-25T18:18:16.284Z,0.76
2019-01-25T18:20:48.305Z,0.76
2019-01-25T18:23:20.439Z,0.81
2019-01-25T18:25:56.933Z,0.77
2019-01-25T18:29:07.845Z,0.77
2019-01-25T18:31:39.884Z,0.71
2019-01-25T18:34:12.005Z,0.79
2019-01-25T18:36:44.086Z,0.81
2019-01-25T18:39:16.162Z,0.72
2019-01-25T18:41:48.171Z,0.68
2019-01-25T18:44:20.282Z,0.66
2019-01-25T18:46:52.536Z,0.76
2019-01-25T18:49:24.584Z,0.71
2019-01-25T18:51:56.691Z,0.80
2019-01-25T18:54:28.771Z,0.76
2019-01-25T18:57:00.977Z,0.78
2019-01-25T18:59:33.062Z,0.73
2019-01-25T19:02:05.249Z,0.70
2019-01-25T19:04:37.375Z,0.76
2019-01-25T19:07:09.382Z,0.76
2019-01-25T19:09:41.470Z,0.72
2019-01-25T19:12:13.818Z,0.66
2019-01-25T19:14:45.858Z,0.85
2019-01-25T19:19:56.433Z,0.99
2019-01-25T19:22:30.066Z,0.89
2019-01-25T19:25:02.122Z,0.87
2019-01-25T19:27:34.210Z,0.84
2019-01-25T19:30:11.675Z,0.92
2019-01-25T19:32:43.905Z,0.74
2019-01-25T19:35:16.026Z,0.77
2019-01-25T19:37:48.176Z,0.80
2019-01-25T19:40:21.304Z,0.73
2019-01-25T19:42:53.525Z,0.86
2019-01-25T19:45:26.211Z,0.80
2019-01-25T19:47:58.297Z,0.81
2019-01-25T19:50:30.503Z,0.83
2019-01-25T19:53:02.757Z,0.81
2019-01-25T19:55:35.120Z,0.83
2019-01-25T19:58:09.439Z,0.85
2019-01-25T20:00:41.537Z,0.85
2019-01-25T20:03:13.671Z,0.81
2019-01-25T20:05:45.763Z,0.85
2019-01-25T20:08:17.833Z,0.82
2019-01-25T20:10:49.952Z,0.84
2019-01-25T20:13:22.681Z,1.00
2019-01-25T20:15:54.712Z,0.89
2019-01-25T20:18:26.856Z,0.82
2019-01-25T20:20:58.897Z,0.83
2019-01-25T20:23:31.688Z,0.79
2019-01-25T20:26:04.231Z,0.82
2019-01-25T20:28:36.385Z,0.78
2019-01-25T20:31:08.432Z,0.76
2019-01-25T20:33:40.522Z,0.72
2019-01-25T20:36:12.594Z,0.72
2019-01-25T20:38:44.645Z,0.78
2019-01-25T20:41:16.719Z,0.81
2019-01-25T20:43:48.807Z,0.85
2019-01-25T20:46:20.859Z,0.80
2019-01-25T20:48:52.882Z,0.96
2019-01-25T20:51:24.920Z,0.74
2019-01-25T20:53:57.029Z,0.76
2019-01-25T20:56:29.073Z,0.75
2019-01-25T20:59:01.099Z,0.77
2019-01-25T21:01:33.132Z,0.77
2019-01-25T21:04:05.262Z,0.77
2019-01-25T21:06:37.444Z,0.80
2019-01-25T21:09:10.375Z,0.86
2019-01-25T21:11:42.565Z,0.84
2019-01-25T21:14:14.584Z,0.76
2019-01-25T21:16:46.687Z,0.86
2019-01-25T21:19:18.714Z,0.84
2019-01-25T21:21:50.850Z,0.92
2019-01-25T21:24:22.896Z,1.17
2019-01-25T21:26:54.969Z,1.02
2019-01-25T21:29:27.015Z,0.96
2019-01-25T21:31:59.075Z,0.96
2019-01-25T21:34:31.077Z,0.87
2019-01-25T21:37:03.187Z,1.00
2019-01-25T21:39:35.216Z,1.03
2019-01-25T21:42:07.321Z,0.97
2019-01-25T21:44:39.310Z,0.92
2019-01-25T21:47:11.335Z,0.92
2019-01-25T21:49:43.354Z,0.87
2019-01-25T21:52:16.005Z,0.84
2019-01-25T21:54:48.219Z,0.85
2019-01-25T21:57:20.252Z,0.88
2019-01-25T21:59:52.317Z,0.95
2019-01-25T22:02:24.423Z,1.00
2019-01-25T22:04:56.415Z,0.99
2019-01-25T22:07:28.451Z,0.97
2019-01-25T22:10:00.552Z,1.04
2019-01-25T22:12:32.552Z,1.04
2019-01-25T22:15:05.567Z,0.96
2019-01-25T22:17:37.562Z,0.92
2019-01-25T22:20:15.569Z,0.88
2019-01-25T22:22:47.729Z,0.84
2019-01-25T22:25:19.974Z,0.93
2019-01-25T22:27:53.399Z,0.89
2019-01-25T22:30:25.845Z,0.92
2019-01-25T22:32:57.844Z,0.90
2019-01-25T22:35:29.877Z,1.00
2019-01-25T22:38:01.876Z,1.09
2019-01-25T22:40:33.893Z,1.06
2019-01-25T22:43:05.926Z,1.04
2019-01-25T22:45:37.935Z,1.00
2019-01-25T22:48:09.931Z,0.94
2019-01-25T22:50:41.995Z,0.93
2019-01-25T22:53:13.988Z,0.91
2019-01-25T22:55:45.996Z,0.96
2019-01-25T22:58:18.062Z,0.83
2019-01-25T23:01:05.078Z,0.82
2019-01-25T23:03:44.181Z,0.81
2019-01-25T23:06:56.466Z,0.87
2019-01-25T23:09:31.236Z,1.07
2019-01-25T23:12:03.798Z,1.01
2019-01-25T23:14:35.895Z,0.92
2019-01-25T23:17:10.756Z,0.92
2019-01-25T23:19:42.998Z,0.92
2019-01-25T23:22:14.986Z,0.90
2019-01-25T23:24:46.975Z,0.87
2019-01-25T23:27:19.001Z,0.90
2019-01-25T23:29:50.984Z,0.89
2019-01-25T23:32:22.988Z,0.89
2019-01-25T23:34:54.988Z,0.88
2019-01-25T23:37:27.017Z,0.82
2019-01-25T23:39:59.017Z,0.85
2019-01-25T23:42:31.041Z,0.87
2019-01-25T23:45:03.474Z,0.86
2019-01-25T23:47:35.600Z,0.88
2019-01-25T23:50:11.950Z,0.89
2019-01-25T23:52:43.976Z,0.85
2019-01-25T23:55:16.069Z,0.90
2019-01-25T23:57:48.093Z,0.92
